sensor_id;sensor_type;location;lat;lon;timestamp;P1;durP1;ratioP1;P2;durP2;ratioP2
5955;SDS011;3004;48.080;11.600;2023-07-28T04:44:43;84.57;;;4.70;;
5955;SDS011;3004;48.080;11.600;2023-07-28T04:47:20;84.27;;;4.60;;
5955;SDS011;3004;48.080;11.600;2023-07-28T04:49:51;84.40;;;4.60;;
5955;SDS011;3004;48.080;11.600;2023-07-28T04:52:28;85.73;;;5.27;;
5955;SDS011;3004;48.080;11.600;2023-07-28T04:55:07;86.10;;;5.27;;
5955;SDS011;3004;48.080;11.600;2023-07-28T04:57:54;83.77;;;4.60;;
5955;SDS011;3004;48.080;11.600;2023-07-28T05:00:47;83.97;;;4.60;;
5955;SDS011;3004;48.080;11.600;2023-07-28T05:03:33;84.43;;;4.50;;
5955;SDS011;3004;48.080;11.600;2023-07-28T05:06:09;85.17;;;4.67;;
5955;SDS011;3004;48.080;11.600;2023-07-28T05:08:38;84.97;;;4.80;;
5955;SDS011;3004;48.080;11.600;2023-07-28T05:11:05;85.27;;;4.77;;
5955;SDS011;3004;48.080;11.600;2023-07-28T05:16:55;86.77;;;5.60;;
5955;SDS011;3004;48.080;11.600;2023-07-28T05:19:25;86.23;;;4.93;;
5955;SDS011;3004;48.080;11.600;2023-07-28T05:22:28;86.97;;;5.03;;
5955;SDS011;3004;48.080;11.600;2023-07-28T05:24:59;86.97;;;5.40;;
5955;SDS011;3004;48.080;11.600;2023-07-28T05:27:29;87.53;;;5.40;;
5955;SDS011;3004;48.080;11.600;2023-07-28T05:30:00;88.27;;;6.63;;
5955;SDS011;3004;48.080;11.600;2023-07-28T05:32:31;91.53;;;7.30;;
5955;SDS011;3004;48.080;11.600;2023-07-28T05:35:00;88.10;;;5.40;;
5955;SDS011;3004;48.080;11.600;2023-07-28T05:37:27;88.63;;;5.50;;
5955;SDS011;3004;48.080;11.600;2023-07-28T05:39:55;88.67;;;5.43;;
5955;SDS011;3004;48.080;11.600;2023-07-28T05:42:25;89.20;;;5.73;;
5955;SDS011;3004;48.080;11.600;2023-07-28T05:44:55;88.53;;;5.33;;
5955;SDS011;3004;48.080;11.600;2023-07-28T05:47:23;88.57;;;5.40;;
5955;SDS011;3004;48.080;11.600;2023-07-28T05:49:51;87.97;;;5.33;;
5955;SDS011;3004;48.080;11.600;2023-07-28T05:52:19;86.83;;;5.20;;
5955;SDS011;3004;48.080;11.600;2023-07-28T05:54:47;87.57;;;5.20;;
5955;SDS011;3004;48.080;11.600;2023-07-28T05:57:16;87.50;;;5.30;;
5955;SDS011;3004;48.080;11.600;2023-07-28T05:59:43;87.63;;;5.80;;
5955;SDS011;3004;48.080;11.600;2023-07-28T06:02:13;87.20;;;5.17;;
5955;SDS011;3004;48.080;11.600;2023-07-28T06:05:02;87.27;;;5.20;;
5955;SDS011;3004;48.080;11.600;2023-07-28T06:07:32;87.77;;;5.40;;
5955;SDS011;3004;48.080;11.600;2023-07-28T06:10:13;86.63;;;5.20;;
5955;SDS011;3004;48.080;11.600;2023-07-28T06:12:43;86.17;;;5.07;;
5955;SDS011;3004;48.080;11.600;2023-07-28T06:15:12;85.37;;;4.97;;
5955;SDS011;3004;48.080;11.600;2023-07-28T06:17:40;85.57;;;4.90;;
5955;SDS011;3004;48.080;11.600;2023-07-28T06:20:09;84.87;;;4.80;;
5955;SDS011;3004;48.080;11.600;2023-07-28T06:22:45;83.13;;;4.57;;
5955;SDS011;3004;48.080;11.600;2023-07-28T06:25:12;82.60;;;4.47;;
5955;SDS011;3004;48.080;11.600;2023-07-28T06:27:40;81.60;;;4.30;;
5955;SDS011;3004;48.080;11.600;2023-07-28T06:30:09;82.47;;;4.40;;
5955;SDS011;3004;48.080;11.600;2023-07-28T06:32:37;82.47;;;4.40;;
5955;SDS011;3004;48.080;11.600;2023-07-28T06:35:05;82.60;;;4.70;;
5955;SDS011;3004;48.080;11.600;2023-07-28T06:37:36;80.97;;;4.23;;
5955;SDS011;3004;48.080;11.600;2023-07-28T06:42:55;79.53;;;4.00;;
5955;SDS011;3004;48.080;11.600;2023-07-28T06:45:29;80.37;;;4.13;;
5955;SDS011;3004;48.080;11.600;2023-07-28T06:48:02;80.13;;;4.10;;
5955;SDS011;3004;48.080;11.600;2023-07-28T06:50:30;84.30;;;4.10;;
5955;SDS011;3004;48.080;11.600;2023-07-28T06:53:02;80.00;;;4.10;;
5955;SDS011;3004;48.080;11.600;2023-07-28T06:55:32;78.37;;;3.67;;
5955;SDS011;3004;48.080;11.600;2023-07-28T06:58:00;78.73;;;4.13;;
5955;SDS011;3004;48.080;11.600;2023-07-28T07:00:28;77.80;;;3.50;;
5955;SDS011;3004;48.080;11.600;2023-07-28T07:02:55;77.87;;;3.60;;
5955;SDS011;3004;48.080;11.600;2023-07-28T07:05:24;78.00;;;4.27;;
5955;SDS011;3004;48.080;11.600;2023-07-28T07:07:51;78.20;;;3.67;;
5955;SDS011;3004;48.080;11.600;2023-07-28T07:10:46;78.00;;;3.67;;
5955;SDS011;3004;48.080;11.600;2023-07-28T07:13:18;76.90;;;3.40;;
5955;SDS011;3004;48.080;11.600;2023-07-28T07:15:45;77.60;;;3.40;;
5955;SDS011;3004;48.080;11.600;2023-07-28T07:18:13;76.93;;;3.40;;
5955;SDS011;3004;48.080;11.600;2023-07-28T07:20:40;76.67;;;3.33;;
5955;SDS011;3004;48.080;11.600;2023-07-28T07:23:10;76.37;;;3.20;;
5955;SDS011;3004;48.080;11.600;2023-07-28T07:25:37;77.30;;;3.50;;
5955;SDS011;3004;48.080;11.600;2023-07-28T07:28:10;77.10;;;3.40;;
5955;SDS011;3004;48.080;11.600;2023-07-28T07:30:37;78.77;;;3.90;;
5955;SDS011;3004;48.080;11.600;2023-07-28T07:33:07;78.20;;;4.20;;
5955;SDS011;3004;48.080;11.600;2023-07-28T07:35:35;77.07;;;3.37;;
5955;SDS011;3004;48.080;11.600;2023-07-28T07:38:04;76.17;;;3.30;;
5955;SDS011;3004;48.080;11.600;2023-07-28T07:40:33;76.17;;;3.10;;
5955;SDS011;3004;48.080;11.600;2023-07-28T07:43:08;76.50;;;3.30;;
5955;SDS011;3004;48.080;11.600;2023-07-28T07:49:04;76.10;;;3.00;;
5955;SDS011;3004;48.080;11.600;2023-07-28T07:51:34;76.70;;;3.77;;
5955;SDS011;3004;48.080;11.600;2023-07-28T07:54:03;76.17;;;3.17;;
5955;SDS011;3004;48.080;11.600;2023-07-28T07:56:34;75.80;;;3.20;;
5955;SDS011;3004;48.080;11.600;2023-07-28T07:59:15;76.23;;;3.30;;
5955;SDS011;3004;48.080;11.600;2023-07-28T08:01:43;76.37;;;3.50;;
5955;SDS011;3004;48.080;11.600;2023-07-28T08:04:14;75.70;;;3.40;;
5955;SDS011;3004;48.080;11.600;2023-07-28T08:06:50;76.37;;;3.30;;
5955;SDS011;3004;48.080;11.600;2023-07-28T08:09:18;75.90;;;3.00;;
5955;SDS011;3004;48.080;11.600;2023-07-28T08:11:45;75.27;;;3.10;;
5955;SDS011;3004;48.080;11.600;2023-07-28T08:14:22;75.67;;;3.00;;
5955;SDS011;3004;48.080;11.600;2023-07-28T08:16:55;76.20;;;3.00;;
5955;SDS011;3004;48.080;11.600;2023-07-28T08:19:54;76.10;;;3.20;;
5955;SDS011;3004;48.080;11.600;2023-07-28T08:22:14;76.13;;;3.00;;
5955;SDS011;3004;48.080;11.600;2023-07-28T08:24:41;76.63;;;3.30;;
5955;SDS011;3004;48.080;11.600;2023-07-28T08:27:10;76.03;;;3.03;;
5955;SDS011;3004;48.080;11.600;2023-07-28T08:29:41;75.97;;;3.00;;
5955;SDS011;3004;48.080;11.600;2023-07-28T08:32:15;76.37;;;2.90;;
5955;SDS011;3004;48.080;11.600;2023-07-28T08:34:50;76.20;;;3.00;;
5955;SDS011;3004;48.080;11.600;2023-07-28T08:37:31;76.00;;;3.00;;
5955;SDS011;3004;48.080;11.600;2023-07-28T08:40:04;77.67;;;3.00;;
5955;SDS011;3004;48.080;11.600;2023-07-28T08:42:41;76.40;;;3.20;;
5955;SDS011;3004;48.080;11.600;2023-07-28T08:45:19;76.23;;;2.87;;
5955;SDS011;3004;48.080;11.600;2023-07-28T08:47:50;75.93;;;2.50;;
5955;SDS011;3004;48.080;11.600;2023-07-28T08:50:20;75.70;;;2.30;;
5955;SDS011;3004;48.080;11.600;2023-07-28T08:52:50;75.57;;;2.30;;
5955;SDS011;3004;48.080;11.600;2023-07-28T08:55:21;76.00;;;2.40;;
5955;SDS011;3004;48.080;11.600;2023-07-28T08:57:55;75.73;;;2.20;;
5955;SDS011;3004;48.080;11.600;2023-07-28T09:00:28;75.50;;;2.00;;
5955;SDS011;3004;48.080;11.600;2023-07-28T09:02:58;75.70;;;1.90;;
5955;SDS011;3004;48.080;11.600;2023-07-28T09:05:32;75.87;;;2.20;;
5955;SDS011;3004;48.080;11.600;2023-07-28T09:08:19;75.93;;;2.00;;
5955;SDS011;3004;48.080;11.600;2023-07-28T09:10:57;75.70;;;2.07;;
5955;SDS011;3004;48.080;11.600;2023-07-28T09:13:36;75.70;;;2.00;;
5955;SDS011;3004;48.080;11.600;2023-07-28T09:16:21;76.07;;;2.13;;
5955;SDS011;3004;48.080;11.600;2023-07-28T09:18:57;75.30;;;1.80;;
5955;SDS011;3004;48.080;11.600;2023-07-28T09:21:35;75.40;;;1.73;;
5955;SDS011;3004;48.080;11.600;2023-07-28T09:24:32;75.87;;;1.90;;
5955;SDS011;3004;48.080;11.600;2023-07-28T09:27:21;75.47;;;1.80;;
5955;SDS011;3004;48.080;11.600;2023-07-28T09:30:00;75.70;;;1.67;;
5955;SDS011;3004;48.080;11.600;2023-07-28T09:32:46;75.87;;;2.10;;
5955;SDS011;3004;48.080;11.600;2023-07-28T09:35:30;75.60;;;1.70;;
5955;SDS011;3004;48.080;11.600;2023-07-28T09:37:59;75.40;;;1.70;;
5955;SDS011;3004;48.080;11.600;2023-07-28T09:41:06;75.60;;;1.70;;
5955;SDS011;3004;48.080;11.600;2023-07-28T09:43:36;75.87;;;1.87;;
5955;SDS011;3004;48.080;11.600;2023-07-28T09:46:11;76.63;;;2.13;;
5955;SDS011;3004;48.080;11.600;2023-07-28T09:48:48;75.40;;;1.60;;
5955;SDS011;3004;48.080;11.600;2023-07-28T09:51:18;75.57;;;1.70;;
5955;SDS011;3004;48.080;11.600;2023-07-28T09:53:53;75.43;;;2.00;;
5955;SDS011;3004;48.080;11.600;2023-07-28T09:56:24;75.87;;;1.70;;
5955;SDS011;3004;48.080;11.600;2023-07-28T09:58:58;75.40;;;2.00;;
5955;SDS011;3004;48.080;11.600;2023-07-28T10:01:31;75.43;;;1.70;;
5955;SDS011;3004;48.080;11.600;2023-07-28T10:04:00;75.50;;;1.70;;
5955;SDS011;3004;48.080;11.600;2023-07-28T10:06:29;76.23;;;2.63;;
5955;SDS011;3004;48.080;11.600;2023-07-28T10:08:58;75.87;;;2.17;;
5955;SDS011;3004;48.080;11.600;2023-07-28T10:11:27;75.80;;;2.60;;
5955;SDS011;3004;48.080;11.600;2023-07-28T10:14:09;75.50;;;1.90;;
5955;SDS011;3004;48.080;11.600;2023-07-28T10:16:38;75.40;;;1.90;;
5955;SDS011;3004;48.080;11.600;2023-07-28T10:19:14;76.17;;;2.40;;
5955;SDS011;3004;48.080;11.600;2023-07-28T10:22:02;75.70;;;1.90;;
5955;SDS011;3004;48.080;11.600;2023-07-28T10:24:53;75.63;;;1.97;;
5955;SDS011;3004;48.080;11.600;2023-07-28T10:27:34;75.60;;;2.23;;
5955;SDS011;3004;48.080;11.600;2023-07-28T10:30:10;75.40;;;2.07;;
5955;SDS011;3004;48.080;11.600;2023-07-28T10:32:43;75.80;;;2.17;;
5955;SDS011;3004;48.080;11.600;2023-07-28T10:35:21;75.67;;;1.87;;
5955;SDS011;3004;48.080;11.600;2023-07-28T10:37:49;75.60;;;1.87;;
5955;SDS011;3004;48.080;11.600;2023-07-28T10:40:40;76.00;;;2.20;;
5955;SDS011;3004;48.080;11.600;2023-07-28T10:43:09;75.93;;;1.87;;
5955;SDS011;3004;48.080;11.600;2023-07-28T10:45:52;75.87;;;1.90;;
5955;SDS011;3004;48.080;11.600;2023-07-28T10:48:21;75.27;;;1.70;;
5955;SDS011;3004;48.080;11.600;2023-07-28T10:50:56;75.87;;;1.90;;
5955;SDS011;3004;48.080;11.600;2023-07-28T10:53:26;75.80;;;1.70;;
5955;SDS011;3004;48.080;11.600;2023-07-28T10:56:08;76.80;;;2.90;;
5955;SDS011;3004;48.080;11.600;2023-07-28T10:58:47;75.43;;;1.80;;
5955;SDS011;3004;48.080;11.600;2023-07-28T11:01:36;76.10;;;2.20;;
5955;SDS011;3004;48.080;11.600;2023-07-28T11:04:19;75.80;;;2.20;;
5955;SDS011;3004;48.080;11.600;2023-07-28T11:10:13;76.27;;;2.60;;
5955;SDS011;3004;48.080;11.600;2023-07-28T11:13:00;75.47;;;2.20;;
5955;SDS011;3004;48.080;11.600;2023-07-28T11:15:41;75.70;;;1.90;;
5955;SDS011;3004;48.080;11.600;2023-07-28T11:18:14;76.00;;;1.90;;
5955;SDS011;3004;48.080;11.600;2023-07-28T11:20:48;76.77;;;2.20;;
5955;SDS011;3004;48.080;11.600;2023-07-28T11:23:26;75.20;;;1.80;;
5955;SDS011;3004;48.080;11.600;2023-07-28T11:26:23;76.00;;;2.07;;
5955;SDS011;3004;48.080;11.600;2023-07-28T11:28:50;76.07;;;1.90;;
5955;SDS011;3004;48.080;11.600;2023-07-28T11:31:24;76.10;;;2.00;;
5955;SDS011;3004;48.080;11.600;2023-07-28T11:33:52;75.73;;;1.87;;
5955;SDS011;3004;48.080;11.600;2023-07-28T11:36:23;75.60;;;1.70;;
5955;SDS011;3004;48.080;11.600;2023-07-28T11:39:05;76.10;;;2.10;;
5955;SDS011;3004;48.080;11.600;2023-07-28T11:41:58;75.60;;;1.80;;
5955;SDS011;3004;48.080;11.600;2023-07-28T11:44:26;76.10;;;2.10;;
5955;SDS011;3004;48.080;11.600;2023-07-28T11:46:57;76.30;;;2.40;;
5955;SDS011;3004;48.080;11.600;2023-07-28T11:49:25;75.67;;;2.00;;
5955;SDS011;3004;48.080;11.600;2023-07-28T11:52:12;76.37;;;2.83;;
5955;SDS011;3004;48.080;11.600;2023-07-28T11:54:40;81.07;;;2.30;;
5955;SDS011;3004;48.080;11.600;2023-07-28T12:00:13;75.90;;;2.10;;
5955;SDS011;3004;48.080;11.600;2023-07-28T12:02:45;75.93;;;1.70;;
5955;SDS011;3004;48.080;11.600;2023-07-28T12:05:15;75.97;;;1.90;;
5955;SDS011;3004;48.080;11.600;2023-07-28T12:07:50;76.03;;;2.00;;
5955;SDS011;3004;48.080;11.600;2023-07-28T12:10:32;77.40;;;2.10;;
5955;SDS011;3004;48.080;11.600;2023-07-28T12:13:09;76.00;;;2.00;;
5955;SDS011;3004;48.080;11.600;2023-07-28T12:16:06;76.30;;;1.90;;
5955;SDS011;3004;48.080;11.600;2023-07-28T12:19:00;76.07;;;1.90;;
5955;SDS011;3004;48.080;11.600;2023-07-28T12:22:13;76.97;;;2.50;;
5955;SDS011;3004;48.080;11.600;2023-07-28T12:24:38;76.27;;;1.80;;
5955;SDS011;3004;48.080;11.600;2023-07-28T12:27:16;76.87;;;2.83;;
5955;SDS011;3004;48.080;11.600;2023-07-28T12:33:36;77.23;;;2.10;;
5955;SDS011;3004;48.080;11.600;2023-07-28T12:36:25;77.07;;;2.33;;
5955;SDS011;3004;48.080;11.600;2023-07-28T12:42:35;76.47;;;2.10;;
5955;SDS011;3004;48.080;11.600;2023-07-28T12:45:44;77.37;;;2.13;;
5955;SDS011;3004;48.080;11.600;2023-07-28T12:48:24;76.77;;;2.30;;
5955;SDS011;3004;48.080;11.600;2023-07-28T12:51:16;78.30;;;2.47;;
5955;SDS011;3004;48.080;11.600;2023-07-28T12:53:58;76.67;;;2.50;;
5955;SDS011;3004;48.080;11.600;2023-07-28T12:57:47;76.70;;;2.20;;
5955;SDS011;3004;48.080;11.600;2023-07-28T13:00:05;77.10;;;2.53;;
5955;SDS011;3004;48.080;11.600;2023-07-28T13:05:38;77.07;;;2.27;;
5955;SDS011;3004;48.080;11.600;2023-07-28T13:14:52;76.27;;;1.80;;
5955;SDS011;3004;48.080;11.600;2023-07-28T13:17:36;77.07;;;1.80;;
5955;SDS011;3004;48.080;11.600;2023-07-28T13:20:36;76.13;;;1.73;;
5955;SDS011;3004;48.080;11.600;2023-07-28T13:23:28;76.63;;;2.20;;
5955;SDS011;3004;48.080;11.600;2023-07-28T13:26:55;76.10;;;1.70;;
5955;SDS011;3004;48.080;11.600;2023-07-28T13:29:18;77.13;;;2.23;;
5955;SDS011;3004;48.080;11.600;2023-07-28T13:35:01;75.90;;;1.60;;
5955;SDS011;3004;48.080;11.600;2023-07-28T13:38:12;76.50;;;2.20;;
5955;SDS011;3004;48.080;11.600;2023-07-28T13:40:45;76.10;;;2.07;;
5955;SDS011;3004;48.080;11.600;2023-07-28T13:43:18;76.30;;;2.03;;
5955;SDS011;3004;48.080;11.600;2023-07-28T13:45:47;76.37;;;2.20;;
5955;SDS011;3004;48.080;11.600;2023-07-28T13:48:37;75.90;;;1.80;;
5955;SDS011;3004;48.080;11.600;2023-07-28T13:51:13;78.77;;;2.17;;
5955;SDS011;3004;48.080;11.600;2023-07-28T13:53:54;76.30;;;2.00;;
5955;SDS011;3004;48.080;11.600;2023-07-28T13:56:34;76.63;;;2.47;;
5955;SDS011;3004;48.080;11.600;2023-07-28T13:59:07;76.80;;;3.17;;
5955;SDS011;3004;48.080;11.600;2023-07-28T14:01:41;76.10;;;1.90;;
5955;SDS011;3004;48.080;11.600;2023-07-28T14:04:30;76.10;;;2.07;;
5955;SDS011;3004;48.080;11.600;2023-07-28T14:07:01;76.17;;;1.70;;
5955;SDS011;3004;48.080;11.600;2023-07-28T14:09:47;76.00;;;1.70;;
5955;SDS011;3004;48.080;11.600;2023-07-28T14:12:30;76.10;;;1.90;;
5955;SDS011;3004;48.080;11.600;2023-07-28T14:15:08;76.87;;;2.17;;
5955;SDS011;3004;48.080;11.600;2023-07-28T14:18:07;76.00;;;2.20;;
5955;SDS011;3004;48.080;11.600;2023-07-28T14:20:30;75.40;;;1.90;;
5955;SDS011;3004;48.080;11.600;2023-07-28T14:23:08;80.90;;;2.30;;
5955;SDS011;3004;48.080;11.600;2023-07-28T14:25:49;76.10;;;2.20;;
5955;SDS011;3004;48.080;11.600;2023-07-28T14:30:19;75.80;;;2.60;;
5955;SDS011;3004;48.080;11.600;2023-07-28T14:31:57;76.27;;;2.90;;
5955;SDS011;3004;48.080;11.600;2023-07-28T14:34:33;77.60;;;3.10;;
5955;SDS011;3004;48.080;11.600;2023-07-28T14:37:25;77.90;;;3.23;;
5955;SDS011;3004;48.080;11.600;2023-07-28T14:40:13;78.10;;;3.40;;
5955;SDS011;3004;48.080;11.600;2023-07-28T14:43:08;78.40;;;3.60;;
5955;SDS011;3004;48.080;11.600;2023-07-28T14:45:54;78.50;;;3.50;;
5955;SDS011;3004;48.080;11.600;2023-07-28T14:48:59;79.20;;;3.53;;
5955;SDS011;3004;48.080;11.600;2023-07-28T14:51:35;78.83;;;3.37;;
5955;SDS011;3004;48.080;11.600;2023-07-28T14:54:30;79.50;;;3.50;;
5955;SDS011;3004;48.080;11.600;2023-07-28T14:57:09;79.37;;;3.60;;
5955;SDS011;3004;48.080;11.600;2023-07-28T15:02:38;78.87;;;3.40;;
5955;SDS011;3004;48.080;11.600;2023-07-28T15:05:26;77.87;;;3.40;;
5955;SDS011;3004;48.080;11.600;2023-07-28T15:08:01;77.63;;;3.50;;
5955;SDS011;3004;48.080;11.600;2023-07-28T15:10:32;78.67;;;3.40;;
5955;SDS011;3004;48.080;11.600;2023-07-28T15:12:59;77.63;;;3.47;;
5955;SDS011;3004;48.080;11.600;2023-07-28T15:15:28;77.07;;;3.20;;
5955;SDS011;3004;48.080;11.600;2023-07-28T15:17:56;76.80;;;3.33;;
5955;SDS011;3004;48.080;11.600;2023-07-28T15:20:27;76.70;;;3.40;;
5955;SDS011;3004;48.080;11.600;2023-07-28T15:22:56;76.40;;;3.30;;
5955;SDS011;3004;48.080;11.600;2023-07-28T15:25:28;76.80;;;3.20;;
5955;SDS011;3004;48.080;11.600;2023-07-28T15:27:59;77.00;;;3.50;;
5955;SDS011;3004;48.080;11.600;2023-07-28T15:30:30;76.70;;;3.30;;
5955;SDS011;3004;48.080;11.600;2023-07-28T15:32:58;78.77;;;3.20;;
5955;SDS011;3004;48.080;11.600;2023-07-28T15:35:28;76.00;;;3.23;;
5955;SDS011;3004;48.080;11.600;2023-07-28T15:37:55;75.80;;;2.80;;
5955;SDS011;3004;48.080;11.600;2023-07-28T15:40:27;75.97;;;2.77;;
5955;SDS011;3004;48.080;11.600;2023-07-28T15:42:54;76.57;;;2.70;;
5955;SDS011;3004;48.080;11.600;2023-07-28T15:45:33;75.40;;;2.60;;
5955;SDS011;3004;48.080;11.600;2023-07-28T15:48:05;76.30;;;2.87;;
5955;SDS011;3004;48.080;11.600;2023-07-28T15:50:38;75.93;;;2.50;;
5955;SDS011;3004;48.080;11.600;2023-07-28T15:53:05;75.60;;;2.30;;
5955;SDS011;3004;48.080;11.600;2023-07-28T15:55:34;75.47;;;2.30;;
5955;SDS011;3004;48.080;11.600;2023-07-28T15:58:03;76.80;;;2.83;;
5955;SDS011;3004;48.080;11.600;2023-07-28T16:00:36;76.07;;;2.60;;
5955;SDS011;3004;48.080;11.600;2023-07-28T16:03:05;75.80;;;2.10;;
5955;SDS011;3004;48.080;11.600;2023-07-28T16:05:36;75.93;;;2.40;;
5955;SDS011;3004;48.080;11.600;2023-07-28T16:08:06;75.50;;;2.10;;
5955;SDS011;3004;48.080;11.600;2023-07-28T16:10:36;75.30;;;2.10;;
5955;SDS011;3004;48.080;11.600;2023-07-28T16:13:07;77.90;;;4.00;;
5955;SDS011;3004;48.080;11.600;2023-07-28T16:15:40;75.60;;;2.10;;
5955;SDS011;3004;48.080;11.600;2023-07-28T16:18:10;75.40;;;2.10;;
5955;SDS011;3004;48.080;11.600;2023-07-28T16:20:51;75.60;;;2.10;;
5955;SDS011;3004;48.080;11.600;2023-07-28T16:23:19;76.00;;;2.50;;
5955;SDS011;3004;48.080;11.600;2023-07-28T16:25:48;76.00;;;2.30;;
5955;SDS011;3004;48.080;11.600;2023-07-28T16:28:21;75.83;;;2.80;;
5955;SDS011;3004;48.080;11.600;2023-07-28T16:30:50;75.87;;;2.60;;
5955;SDS011;3004;48.080;11.600;2023-07-28T16:33:22;75.60;;;2.50;;
5955;SDS011;3004;48.080;11.600;2023-07-28T16:36:13;75.90;;;2.60;;
5955;SDS011;3004;48.080;11.600;2023-07-28T16:38:46;75.37;;;2.63;;
5955;SDS011;3004;48.080;11.600;2023-07-28T16:41:15;75.50;;;2.80;;
5955;SDS011;3004;48.080;11.600;2023-07-28T16:43:44;77.47;;;3.10;;
5955;SDS011;3004;48.080;11.600;2023-07-28T16:46:13;75.80;;;2.90;;
5955;SDS011;3004;48.080;11.600;2023-07-28T16:48:46;76.50;;;3.00;;
5955;SDS011;3004;48.080;11.600;2023-07-28T16:51:13;75.90;;;2.90;;
5955;SDS011;3004;48.080;11.600;2023-07-28T16:54:02;76.10;;;3.00;;
5955;SDS011;3004;48.080;11.600;2023-07-28T16:56:32;75.80;;;3.10;;
5955;SDS011;3004;48.080;11.600;2023-07-28T16:59:00;76.07;;;3.07;;
5955;SDS011;3004;48.080;11.600;2023-07-28T17:01:30;77.17;;;3.20;;
5955;SDS011;3004;48.080;11.600;2023-07-28T17:04:03;76.00;;;2.80;;
5955;SDS011;3004;48.080;11.600;2023-07-28T17:06:30;75.90;;;2.87;;
5955;SDS011;3004;48.080;11.600;2023-07-28T17:09:08;76.30;;;3.43;;
5955;SDS011;3004;48.080;11.600;2023-07-28T17:11:37;78.67;;;4.20;;
5955;SDS011;3004;48.080;11.600;2023-07-28T17:14:15;76.20;;;3.10;;
5955;SDS011;3004;48.080;11.600;2023-07-28T17:16:47;75.90;;;2.80;;
5955;SDS011;3004;48.080;11.600;2023-07-28T17:19:20;75.80;;;2.70;;
5955;SDS011;3004;48.080;11.600;2023-07-28T17:21:47;76.17;;;2.70;;
5955;SDS011;3004;48.080;11.600;2023-07-28T17:24:22;75.40;;;2.80;;
5955;SDS011;3004;48.080;11.600;2023-07-28T17:26:55;76.00;;;2.70;;
5955;SDS011;3004;48.080;11.600;2023-07-28T17:29:36;75.87;;;2.77;;
5955;SDS011;3004;48.080;11.600;2023-07-28T17:32:10;75.60;;;2.80;;
5955;SDS011;3004;48.080;11.600;2023-07-28T17:34:41;75.40;;;2.80;;
5955;SDS011;3004;48.080;11.600;2023-07-28T17:37:08;76.13;;;2.90;;
5955;SDS011;3004;48.080;11.600;2023-07-28T17:39:49;75.90;;;3.10;;
5955;SDS011;3004;48.080;11.600;2023-07-28T17:42:20;76.10;;;3.13;;
5955;SDS011;3004;48.080;11.600;2023-07-28T17:44:52;76.00;;;3.03;;
5955;SDS011;3004;48.080;11.600;2023-07-28T17:47:21;77.27;;;3.10;;
5955;SDS011;3004;48.080;11.600;2023-07-28T17:50:24;83.30;;;4.80;;
5955;SDS011;3004;48.080;11.600;2023-07-28T17:52:57;76.67;;;3.10;;
5955;SDS011;3004;48.080;11.600;2023-07-28T17:55:24;77.60;;;3.40;;
5955;SDS011;3004;48.080;11.600;2023-07-28T17:57:52;77.77;;;4.03;;
5955;SDS011;3004;48.080;11.600;2023-07-28T18:00:22;79.80;;;4.70;;
5955;SDS011;3004;48.080;11.600;2023-07-28T18:02:53;77.87;;;3.60;;
5955;SDS011;3004;48.080;11.600;2023-07-28T18:05:23;78.40;;;3.50;;
5955;SDS011;3004;48.080;11.600;2023-07-28T18:07:54;77.87;;;3.40;;
5955;SDS011;3004;48.080;11.600;2023-07-28T18:10:36;80.00;;;3.70;;
5955;SDS011;3004;48.080;11.600;2023-07-28T18:13:05;81.20;;;3.60;;
5955;SDS011;3004;48.080;11.600;2023-07-28T18:15:41;82.00;;;3.70;;
5955;SDS011;3004;48.080;11.600;2023-07-28T18:18:14;83.07;;;4.20;;
5955;SDS011;3004;48.080;11.600;2023-07-28T18:21:08;84.20;;;3.93;;
5955;SDS011;3004;48.080;11.600;2023-07-28T18:24:15;85.60;;;4.30;;
5955;SDS011;3004;48.080;11.600;2023-07-28T18:26:48;86.60;;;4.50;;
5955;SDS011;3004;48.080;11.600;2023-07-28T18:29:22;87.17;;;4.60;;
5955;SDS011;3004;48.080;11.600;2023-07-28T18:32:08;88.53;;;4.70;;
5955;SDS011;3004;48.080;11.600;2023-07-28T18:38:00;91.10;;;5.60;;
5955;SDS011;3004;48.080;11.600;2023-07-28T19:46:12;99.47;;;7.30;;
5955;SDS011;3004;48.080;11.600;2023-07-28T19:49:20;99.50;;;7.33;;
5955;SDS011;3004;48.080;11.600;2023-07-28T19:51:57;99.67;;;7.37;;
5955;SDS011;3004;48.080;11.600;2023-07-28T19:54:46;99.47;;;7.80;;
5955;SDS011;3004;48.080;11.600;2023-07-28T19:57:26;99.10;;;7.23;;
5955;SDS011;3004;48.080;11.600;2023-07-28T20:03:17;98.97;;;7.40;;
5955;SDS011;3004;48.080;11.600;2023-07-28T20:05:59;98.70;;;7.20;;
5955;SDS011;3004;48.080;11.600;2023-07-28T20:08:33;98.57;;;7.37;;
5955;SDS011;3004;48.080;11.600;2023-07-28T20:11:05;98.70;;;7.30;;
5955;SDS011;3004;48.080;11.600;2023-07-28T20:14:14;98.30;;;7.20;;
5955;SDS011;3004;48.080;11.600;2023-07-28T20:16:58;98.70;;;7.80;;
5955;SDS011;3004;48.080;11.600;2023-07-28T20:19:33;98.57;;;7.50;;
5955;SDS011;3004;48.080;11.600;2023-07-28T20:22:19;98.30;;;7.23;;
5955;SDS011;3004;48.080;11.600;2023-07-28T20:26:04;98.40;;;7.37;;
5955;SDS011;3004;48.080;11.600;2023-07-28T20:28:27;98.70;;;7.30;;
5955;SDS011;3004;48.080;11.600;2023-07-28T20:31:15;100.97;;;8.57;;
5955;SDS011;3004;48.080;11.600;2023-07-28T20:34:14;98.57;;;7.37;;
5955;SDS011;3004;48.080;11.600;2023-07-28T20:36:53;98.20;;;7.30;;
5955;SDS011;3004;48.080;11.600;2023-07-28T20:39:26;98.50;;;7.33;;
5955;SDS011;3004;48.080;11.600;2023-07-28T20:42:06;98.40;;;7.37;;
5955;SDS011;3004;48.080;11.600;2023-07-28T20:44:43;99.07;;;7.77;;
5955;SDS011;3004;48.080;11.600;2023-07-28T20:47:14;97.97;;;7.27;;
5955;SDS011;3004;48.080;11.600;2023-07-28T20:50:09;97.50;;;7.13;;
5955;SDS011;3004;48.080;11.600;2023-07-28T20:52:53;98.53;;;7.23;;
5955;SDS011;3004;48.080;11.600;2023-07-28T20:55:27;98.07;;;7.20;;
5955;SDS011;3004;48.080;11.600;2023-07-28T21:01:23;97.83;;;7.17;;
5955;SDS011;3004;48.080;11.600;2023-07-28T21:04:07;97.10;;;7.13;;
5955;SDS011;3004;48.080;11.600;2023-07-28T21:10:19;97.50;;;7.10;;
5955;SDS011;3004;48.080;11.600;2023-07-28T21:13:17;97.70;;;7.20;;
5955;SDS011;3004;48.080;11.600;2023-07-28T21:15:56;97.40;;;7.13;;
5955;SDS011;3004;48.080;11.600;2023-07-28T21:36:50;97.40;;;7.17;;
